sensor_id;sensor_type;location;lat;lon;timestamp;P1;durP1;ratioP1;P2;durP2;ratioP2
21305;SDS011;10812;51.838;5.838;2023-03-16T00:02:16;2.50;;;2.27;;
21305;SDS011;10812;51.838;5.838;2023-03-16T00:04:45;3.37;;;2.30;;
21305;SDS011;10812;51.838;5.838;2023-03-16T00:07:14;6.87;;;2.30;;
21305;SDS011;10812;51.838;5.838;2023-03-16T00:09:42;3.67;;;2.50;;
21305;SDS011;10812;51.838;5.838;2023-03-16T00:12:12;4.80;;;2.80;;
21305;SDS011;10812;51.838;5.838;2023-03-16T00:14:44;2.93;;;2.20;;
21305;SDS011;10812;51.838;5.838;2023-03-16T00:17:14;3.53;;;2.47;;
21305;SDS011;10812;51.838;5.838;2023-03-16T00:19:45;2.93;;;2.40;;
21305;SDS011;10812;51.838;5.838;2023-03-16T00:22:16;2.73;;;2.20;;
21305;SDS011;10812;51.838;5.838;2023-03-16T00:24:45;3.77;;;2.37;;
21305;SDS011;10812;51.838;5.838;2023-03-16T00:27:13;4.00;;;2.37;;
21305;SDS011;10812;51.838;5.838;2023-03-16T00:29:44;4.23;;;2.63;;
21305;SDS011;10812;51.838;5.838;2023-03-16T00:32:15;3.00;;;2.30;;
21305;SDS011;10812;51.838;5.838;2023-03-16T00:34:44;2.90;;;2.27;;
21305;SDS011;10812;51.838;5.838;2023-03-16T00:37:13;6.67;;;2.57;;
21305;SDS011;10812;51.838;5.838;2023-03-16T00:39:43;3.17;;;2.47;;
21305;SDS011;10812;51.838;5.838;2023-03-16T00:42:13;5.30;;;2.63;;
21305;SDS011;10812;51.838;5.838;2023-03-16T00:44:44;3.10;;;2.40;;
21305;SDS011;10812;51.838;5.838;2023-03-16T00:47:12;4.70;;;2.43;;
21305;SDS011;10812;51.838;5.838;2023-03-16T00:49:41;5.17;;;2.60;;
21305;SDS011;10812;51.838;5.838;2023-03-16T00:52:11;4.53;;;2.87;;
21305;SDS011;10812;51.838;5.838;2023-03-16T00:54:41;4.40;;;2.50;;
21305;SDS011;10812;51.838;5.838;2023-03-16T00:57:10;4.13;;;2.70;;
21305;SDS011;10812;51.838;5.838;2023-03-16T00:59:39;4.90;;;2.77;;
21305;SDS011;10812;51.838;5.838;2023-03-16T01:05:30;3.33;;;2.50;;
21305;SDS011;10812;51.838;5.838;2023-03-16T01:07:59;4.17;;;2.60;;
21305;SDS011;10812;51.838;5.838;2023-03-16T01:10:28;3.40;;;2.27;;
21305;SDS011;10812;51.838;5.838;2023-03-16T01:12:56;5.60;;;2.23;;
21305;SDS011;10812;51.838;5.838;2023-03-16T01:15:24;4.70;;;2.80;;
21305;SDS011;10812;51.838;5.838;2023-03-16T01:17:52;4.83;;;2.47;;
21305;SDS011;10812;51.838;5.838;2023-03-16T01:20:20;3.90;;;2.43;;
21305;SDS011;10812;51.838;5.838;2023-03-16T01:22:50;4.50;;;2.40;;
21305;SDS011;10812;51.838;5.838;2023-03-16T01:25:20;4.97;;;2.77;;
21305;SDS011;10812;51.838;5.838;2023-03-16T01:27:49;4.43;;;2.27;;
21305;SDS011;10812;51.838;5.838;2023-03-16T01:30:18;5.77;;;2.70;;
21305;SDS011;10812;51.838;5.838;2023-03-16T01:32:47;4.67;;;3.03;;
21305;SDS011;10812;51.838;5.838;2023-03-16T01:35:15;3.73;;;2.30;;
21305;SDS011;10812;51.838;5.838;2023-03-16T01:37:44;4.17;;;2.93;;
21305;SDS011;10812;51.838;5.838;2023-03-16T01:40:13;2.93;;;2.30;;
21305;SDS011;10812;51.838;5.838;2023-03-16T01:42:45;4.37;;;2.17;;
21305;SDS011;10812;51.838;5.838;2023-03-16T01:48:20;4.47;;;2.20;;
21305;SDS011;10812;51.838;5.838;2023-03-16T01:50:50;6.00;;;2.67;;
21305;SDS011;10812;51.838;5.838;2023-03-16T01:53:19;3.47;;;2.73;;
21305;SDS011;10812;51.838;5.838;2023-03-16T01:55:50;6.33;;;2.60;;
21305;SDS011;10812;51.838;5.838;2023-03-16T01:58:20;3.90;;;2.13;;
21305;SDS011;10812;51.838;5.838;2023-03-16T02:00:49;3.30;;;2.40;;
21305;SDS011;10812;51.838;5.838;2023-03-16T02:03:17;3.57;;;2.67;;
21305;SDS011;10812;51.838;5.838;2023-03-16T02:05:49;3.50;;;2.10;;
21305;SDS011;10812;51.838;5.838;2023-03-16T02:08:20;3.67;;;2.37;;
21305;SDS011;10812;51.838;5.838;2023-03-16T02:10:50;3.53;;;2.00;;
21305;SDS011;10812;51.838;5.838;2023-03-16T02:13:20;2.97;;;2.10;;
21305;SDS011;10812;51.838;5.838;2023-03-16T02:15:50;3.60;;;2.20;;
21305;SDS011;10812;51.838;5.838;2023-03-16T02:18:19;3.27;;;2.30;;
21305;SDS011;10812;51.838;5.838;2023-03-16T02:20:49;2.70;;;2.10;;
21305;SDS011;10812;51.838;5.838;2023-03-16T02:23:23;2.37;;;2.10;;
21305;SDS011;10812;51.838;5.838;2023-03-16T02:25:54;2.70;;;2.13;;
21305;SDS011;10812;51.838;5.838;2023-03-16T02:28:29;5.13;;;1.80;;
21305;SDS011;10812;51.838;5.838;2023-03-16T02:31:03;4.40;;;2.40;;
21305;SDS011;10812;51.838;5.838;2023-03-16T02:33:32;4.83;;;2.50;;
21305;SDS011;10812;51.838;5.838;2023-03-16T02:36:01;4.67;;;1.93;;
21305;SDS011;10812;51.838;5.838;2023-03-16T02:38:29;3.20;;;2.00;;
21305;SDS011;10812;51.838;5.838;2023-03-16T02:40:58;2.13;;;1.93;;
21305;SDS011;10812;51.838;5.838;2023-03-16T02:43:36;7.63;;;2.30;;
21305;SDS011;10812;51.838;5.838;2023-03-16T02:46:08;3.17;;;1.93;;
21305;SDS011;10812;51.838;5.838;2023-03-16T02:48:37;4.57;;;2.40;;
21305;SDS011;10812;51.838;5.838;2023-03-16T02:51:10;2.27;;;1.97;;
21305;SDS011;10812;51.838;5.838;2023-03-16T02:53:39;6.27;;;2.67;;
21305;SDS011;10812;51.838;5.838;2023-03-16T02:56:07;2.90;;;2.47;;
21305;SDS011;10812;51.838;5.838;2023-03-16T02:58:35;4.23;;;2.30;;
21305;SDS011;10812;51.838;5.838;2023-03-16T03:06:26;2.80;;;2.30;;
21305;SDS011;10812;51.838;5.838;2023-03-16T03:08:54;3.87;;;2.20;;
21305;SDS011;10812;51.838;5.838;2023-03-16T03:11:22;3.27;;;1.80;;
21305;SDS011;10812;51.838;5.838;2023-03-16T03:13:50;2.87;;;2.57;;
21305;SDS011;10812;51.838;5.838;2023-03-16T03:16:18;3.90;;;2.53;;
21305;SDS011;10812;51.838;5.838;2023-03-16T03:18:46;3.43;;;2.20;;
21305;SDS011;10812;51.838;5.838;2023-03-16T03:21:15;6.00;;;1.97;;
21305;SDS011;10812;51.838;5.838;2023-03-16T03:23:44;4.83;;;1.90;;
21305;SDS011;10812;51.838;5.838;2023-03-16T03:26:12;2.73;;;2.20;;
21305;SDS011;10812;51.838;5.838;2023-03-16T03:28:41;2.40;;;1.87;;
21305;SDS011;10812;51.838;5.838;2023-03-16T03:31:12;3.60;;;2.23;;
21305;SDS011;10812;51.838;5.838;2023-03-16T03:33:41;5.87;;;2.40;;
21305;SDS011;10812;51.838;5.838;2023-03-16T03:36:09;3.30;;;2.40;;
21305;SDS011;10812;51.838;5.838;2023-03-16T03:38:38;2.43;;;2.13;;
21305;SDS011;10812;51.838;5.838;2023-03-16T03:41:07;3.23;;;2.70;;
21305;SDS011;10812;51.838;5.838;2023-03-16T03:43:35;4.60;;;2.40;;
21305;SDS011;10812;51.838;5.838;2023-03-16T03:46:04;6.37;;;2.70;;
21305;SDS011;10812;51.838;5.838;2023-03-16T03:48:32;3.80;;;2.27;;
21305;SDS011;10812;51.838;5.838;2023-03-16T03:51:00;3.73;;;2.53;;
21305;SDS011;10812;51.838;5.838;2023-03-16T03:53:29;3.23;;;2.10;;
21305;SDS011;10812;51.838;5.838;2023-03-16T03:55:57;3.37;;;2.40;;
21305;SDS011;10812;51.838;5.838;2023-03-16T04:02:17;3.77;;;2.17;;
21305;SDS011;10812;51.838;5.838;2023-03-16T04:04:46;2.70;;;2.40;;
21305;SDS011;10812;51.838;5.838;2023-03-16T04:07:14;4.73;;;2.67;;
21305;SDS011;10812;51.838;5.838;2023-03-16T04:09:42;6.13;;;2.47;;
21305;SDS011;10812;51.838;5.838;2023-03-16T04:12:10;3.57;;;2.30;;
21305;SDS011;10812;51.838;5.838;2023-03-16T04:14:40;3.87;;;2.40;;
21305;SDS011;10812;51.838;5.838;2023-03-16T04:17:09;4.27;;;2.60;;
21305;SDS011;10812;51.838;5.838;2023-03-16T04:19:39;3.67;;;2.33;;
21305;SDS011;10812;51.838;5.838;2023-03-16T04:22:07;7.47;;;2.63;;
21305;SDS011;10812;51.838;5.838;2023-03-16T04:24:35;5.43;;;2.80;;
21305;SDS011;10812;51.838;5.838;2023-03-16T04:27:03;2.83;;;2.40;;
21305;SDS011;10812;51.838;5.838;2023-03-16T04:29:31;3.57;;;2.73;;
21305;SDS011;10812;51.838;5.838;2023-03-16T04:31:59;2.53;;;2.10;;
21305;SDS011;10812;51.838;5.838;2023-03-16T04:34:28;3.23;;;2.53;;
21305;SDS011;10812;51.838;5.838;2023-03-16T04:52:12;5.63;;;3.37;;
21305;SDS011;10812;51.838;5.838;2023-03-16T04:54:40;3.87;;;2.07;;
21305;SDS011;10812;51.838;5.838;2023-03-16T04:57:09;3.67;;;2.67;;
21305;SDS011;10812;51.838;5.838;2023-03-16T04:59:37;3.27;;;2.57;;
21305;SDS011;10812;51.838;5.838;2023-03-16T05:02:05;4.77;;;2.50;;
21305;SDS011;10812;51.838;5.838;2023-03-16T05:04:33;4.43;;;2.30;;
21305;SDS011;10812;51.838;5.838;2023-03-16T05:07:01;4.57;;;2.10;;
21305;SDS011;10812;51.838;5.838;2023-03-16T05:09:31;3.60;;;2.30;;
21305;SDS011;10812;51.838;5.838;2023-03-16T05:11:59;2.37;;;2.10;;
21305;SDS011;10812;51.838;5.838;2023-03-16T05:14:27;3.53;;;2.50;;
21305;SDS011;10812;51.838;5.838;2023-03-16T05:16:56;4.43;;;2.70;;
21305;SDS011;10812;51.838;5.838;2023-03-16T05:19:24;2.83;;;2.23;;
21305;SDS011;10812;51.838;5.838;2023-03-16T05:21:52;5.17;;;2.70;;
21305;SDS011;10812;51.838;5.838;2023-03-16T05:24:20;2.50;;;1.97;;
21305;SDS011;10812;51.838;5.838;2023-03-16T05:26:50;2.77;;;2.10;;
21305;SDS011;10812;51.838;5.838;2023-03-16T05:29:18;4.33;;;2.47;;
21305;SDS011;10812;51.838;5.838;2023-03-16T05:31:46;4.20;;;2.43;;
21305;SDS011;10812;51.838;5.838;2023-03-16T05:34:14;3.00;;;2.43;;
21305;SDS011;10812;51.838;5.838;2023-03-16T05:36:42;3.33;;;2.27;;
21305;SDS011;10812;51.838;5.838;2023-03-16T05:39:11;4.40;;;2.50;;
21305;SDS011;10812;51.838;5.838;2023-03-16T05:41:39;2.37;;;2.17;;
21305;SDS011;10812;51.838;5.838;2023-03-16T05:44:09;3.37;;;2.20;;
21305;SDS011;10812;51.838;5.838;2023-03-16T05:46:37;3.90;;;2.10;;
21305;SDS011;10812;51.838;5.838;2023-03-16T05:49:05;3.03;;;2.13;;
21305;SDS011;10812;51.838;5.838;2023-03-16T05:51:34;6.77;;;2.67;;
21305;SDS011;10812;51.838;5.838;2023-03-16T05:54:02;2.47;;;2.27;;
21305;SDS011;10812;51.838;5.838;2023-03-16T05:56:30;3.63;;;2.60;;
21305;SDS011;10812;51.838;5.838;2023-03-16T05:58:58;4.63;;;1.90;;
21305;SDS011;10812;51.838;5.838;2023-03-16T06:01:32;6.03;;;3.07;;
21305;SDS011;10812;51.838;5.838;2023-03-16T06:04:00;3.27;;;2.33;;
21305;SDS011;10812;51.838;5.838;2023-03-16T06:06:30;5.33;;;2.30;;
21305;SDS011;10812;51.838;5.838;2023-03-16T06:09:00;4.33;;;2.77;;
21305;SDS011;10812;51.838;5.838;2023-03-16T06:11:28;3.70;;;2.00;;
21305;SDS011;10812;51.838;5.838;2023-03-16T06:13:58;5.20;;;2.40;;
21305;SDS011;10812;51.838;5.838;2023-03-16T06:16:26;7.60;;;2.90;;
21305;SDS011;10812;51.838;5.838;2023-03-16T06:18:56;4.30;;;2.60;;
21305;SDS011;10812;51.838;5.838;2023-03-16T06:21:25;3.57;;;2.30;;
21305;SDS011;10812;51.838;5.838;2023-03-16T06:23:53;3.77;;;2.57;;
21305;SDS011;10812;51.838;5.838;2023-03-16T06:26:21;4.07;;;2.80;;
21305;SDS011;10812;51.838;5.838;2023-03-16T06:28:49;6.70;;;2.47;;
21305;SDS011;10812;51.838;5.838;2023-03-16T06:31:17;3.93;;;2.53;;
21305;SDS011;10812;51.838;5.838;2023-03-16T06:33:46;3.67;;;2.43;;
21305;SDS011;10812;51.838;5.838;2023-03-16T06:36:15;3.07;;;2.17;;
21305;SDS011;10812;51.838;5.838;2023-03-16T06:38:43;3.47;;;2.53;;
21305;SDS011;10812;51.838;5.838;2023-03-16T06:41:11;3.13;;;2.30;;
21305;SDS011;10812;51.838;5.838;2023-03-16T06:43:40;4.13;;;2.63;;
21305;SDS011;10812;51.838;5.838;2023-03-16T06:46:08;4.73;;;2.80;;
21305;SDS011;10812;51.838;5.838;2023-03-16T06:48:36;4.63;;;2.80;;
21305;SDS011;10812;51.838;5.838;2023-03-16T06:51:05;4.17;;;2.40;;
21305;SDS011;10812;51.838;5.838;2023-03-16T06:53:34;3.23;;;2.60;;
21305;SDS011;10812;51.838;5.838;2023-03-16T06:56:03;6.43;;;2.63;;
21305;SDS011;10812;51.838;5.838;2023-03-16T06:58:31;6.17;;;2.77;;
21305;SDS011;10812;51.838;5.838;2023-03-16T07:01:00;4.60;;;2.80;;
21305;SDS011;10812;51.838;5.838;2023-03-16T07:03:28;4.57;;;2.63;;
21305;SDS011;10812;51.838;5.838;2023-03-16T07:05:57;4.13;;;2.60;;
21305;SDS011;10812;51.838;5.838;2023-03-16T07:08:25;3.50;;;2.50;;
21305;SDS011;10812;51.838;5.838;2023-03-16T07:10:54;5.47;;;2.80;;
21305;SDS011;10812;51.838;5.838;2023-03-16T07:13:22;5.63;;;3.13;;
21305;SDS011;10812;51.838;5.838;2023-03-16T07:15:51;5.57;;;3.30;;
21305;SDS011;10812;51.838;5.838;2023-03-16T07:18:19;4.13;;;3.00;;
21305;SDS011;10812;51.838;5.838;2023-03-16T07:20:47;4.50;;;3.37;;
21305;SDS011;10812;51.838;5.838;2023-03-16T07:23:15;4.53;;;2.80;;
21305;SDS011;10812;51.838;5.838;2023-03-16T07:25:43;4.00;;;2.80;;
21305;SDS011;10812;51.838;5.838;2023-03-16T07:28:13;3.00;;;2.70;;
21305;SDS011;10812;51.838;5.838;2023-03-16T07:30:41;5.47;;;3.27;;
21305;SDS011;10812;51.838;5.838;2023-03-16T07:33:27;4.30;;;3.00;;
21305;SDS011;10812;51.838;5.838;2023-03-16T07:35:55;4.07;;;3.17;;
21305;SDS011;10812;51.838;5.838;2023-03-16T07:38:23;5.23;;;3.00;;
21305;SDS011;10812;51.838;5.838;2023-03-16T07:40:51;3.10;;;2.77;;
21305;SDS011;10812;51.838;5.838;2023-03-16T07:43:21;5.50;;;2.87;;
21305;SDS011;10812;51.838;5.838;2023-03-16T07:45:50;5.53;;;2.70;;
21305;SDS011;10812;51.838;5.838;2023-03-16T07:48:18;6.43;;;3.47;;
21305;SDS011;10812;51.838;5.838;2023-03-16T07:50:48;3.57;;;2.97;;
21305;SDS011;10812;51.838;5.838;2023-03-16T07:53:17;4.80;;;2.70;;
21305;SDS011;10812;51.838;5.838;2023-03-16T07:55:45;4.03;;;3.10;;
21305;SDS011;10812;51.838;5.838;2023-03-16T07:58:13;5.57;;;3.00;;
21305;SDS011;10812;51.838;5.838;2023-03-16T08:00:43;5.00;;;3.07;;
21305;SDS011;10812;51.838;5.838;2023-03-16T08:03:11;5.67;;;3.17;;
21305;SDS011;10812;51.838;5.838;2023-03-16T08:05:39;5.53;;;3.10;;
21305;SDS011;10812;51.838;5.838;2023-03-16T08:08:07;4.93;;;2.97;;
21305;SDS011;10812;51.838;5.838;2023-03-16T08:10:36;5.40;;;3.30;;
21305;SDS011;10812;51.838;5.838;2023-03-16T08:13:04;4.30;;;3.00;;
21305;SDS011;10812;51.838;5.838;2023-03-16T08:15:32;6.10;;;3.30;;
21305;SDS011;10812;51.838;5.838;2023-03-16T08:18:02;3.27;;;2.60;;
21305;SDS011;10812;51.838;5.838;2023-03-16T08:20:32;5.43;;;3.30;;
21305;SDS011;10812;51.838;5.838;2023-03-16T08:23:00;5.50;;;3.17;;
21305;SDS011;10812;51.838;5.838;2023-03-16T08:25:28;4.57;;;3.10;;
21305;SDS011;10812;51.838;5.838;2023-03-16T08:27:56;4.93;;;2.93;;
21305;SDS011;10812;51.838;5.838;2023-03-16T08:30:25;3.10;;;2.40;;
21305;SDS011;10812;51.838;5.838;2023-03-16T08:32:53;5.33;;;3.40;;
21305;SDS011;10812;51.838;5.838;2023-03-16T08:35:24;4.70;;;2.83;;
21305;SDS011;10812;51.838;5.838;2023-03-16T08:37:53;6.17;;;2.80;;
21305;SDS011;10812;51.838;5.838;2023-03-16T08:40:22;4.57;;;2.97;;
21305;SDS011;10812;51.838;5.838;2023-03-16T08:42:50;4.63;;;2.90;;
21305;SDS011;10812;51.838;5.838;2023-03-16T08:45:19;3.40;;;2.40;;
21305;SDS011;10812;51.838;5.838;2023-03-16T08:47:48;3.40;;;2.53;;
21305;SDS011;10812;51.838;5.838;2023-03-16T08:50:16;4.30;;;2.60;;
21305;SDS011;10812;51.838;5.838;2023-03-16T08:52:47;3.80;;;2.53;;
21305;SDS011;10812;51.838;5.838;2023-03-16T08:55:16;4.60;;;2.50;;
21305;SDS011;10812;51.838;5.838;2023-03-16T08:57:44;2.57;;;2.07;;
21305;SDS011;10812;51.838;5.838;2023-03-16T09:00:14;3.33;;;2.70;;
21305;SDS011;10812;51.838;5.838;2023-03-16T09:02:43;5.33;;;2.47;;
21305;SDS011;10812;51.838;5.838;2023-03-16T09:05:12;3.53;;;2.27;;
21305;SDS011;10812;51.838;5.838;2023-03-16T09:07:41;4.83;;;2.37;;
21305;SDS011;10812;51.838;5.838;2023-03-16T09:10:11;3.40;;;2.33;;
21305;SDS011;10812;51.838;5.838;2023-03-16T09:12:41;3.37;;;2.30;;
21305;SDS011;10812;51.838;5.838;2023-03-16T09:15:10;2.27;;;2.07;;
21305;SDS011;10812;51.838;5.838;2023-03-16T09:17:40;4.13;;;2.33;;
21305;SDS011;10812;51.838;5.838;2023-03-16T09:20:10;4.67;;;2.20;;
21305;SDS011;10812;51.838;5.838;2023-03-16T09:22:54;2.90;;;2.27;;
21305;SDS011;10812;51.838;5.838;2023-03-16T09:25:25;5.83;;;2.43;;
21305;SDS011;10812;51.838;5.838;2023-03-16T09:27:53;4.93;;;2.60;;
21305;SDS011;10812;51.838;5.838;2023-03-16T09:30:22;3.90;;;2.20;;
21305;SDS011;10812;51.838;5.838;2023-03-16T09:32:50;7.50;;;3.20;;
21305;SDS011;10812;51.838;5.838;2023-03-16T09:35:18;4.73;;;2.50;;
21305;SDS011;10812;51.838;5.838;2023-03-16T09:37:47;7.00;;;2.90;;
21305;SDS011;10812;51.838;5.838;2023-03-16T09:40:32;5.60;;;3.13;;
21305;SDS011;10812;51.838;5.838;2023-03-16T09:46:05;6.33;;;3.50;;
21305;SDS011;10812;51.838;5.838;2023-03-16T09:48:38;4.60;;;2.93;;
21305;SDS011;10812;51.838;5.838;2023-03-16T09:51:07;5.80;;;3.50;;
21305;SDS011;10812;51.838;5.838;2023-03-16T09:53:43;6.47;;;3.53;;
21305;SDS011;10812;51.838;5.838;2023-03-16T09:56:18;6.40;;;3.47;;
21305;SDS011;10812;51.838;5.838;2023-03-16T09:58:54;5.77;;;3.63;;
21305;SDS011;10812;51.838;5.838;2023-03-16T10:01:24;5.13;;;3.77;;
21305;SDS011;10812;51.838;5.838;2023-03-16T10:04:04;7.37;;;4.17;;
21305;SDS011;10812;51.838;5.838;2023-03-16T10:06:43;7.33;;;4.13;;
21305;SDS011;10812;51.838;5.838;2023-03-16T10:09:21;5.40;;;3.83;;
21305;SDS011;10812;51.838;5.838;2023-03-16T10:12:00;7.67;;;4.00;;
21305;SDS011;10812;51.838;5.838;2023-03-16T10:14:33;6.23;;;3.63;;
21305;SDS011;10812;51.838;5.838;2023-03-16T10:17:10;8.00;;;3.63;;
21305;SDS011;10812;51.838;5.838;2023-03-16T10:19:42;5.40;;;3.33;;
21305;SDS011;10812;51.838;5.838;2023-03-16T10:22:16;4.10;;;2.70;;
21305;SDS011;10812;51.838;5.838;2023-03-16T10:24:51;3.53;;;2.70;;
21305;SDS011;10812;51.838;5.838;2023-03-16T10:27:41;5.57;;;2.80;;
21305;SDS011;10812;51.838;5.838;2023-03-16T10:30:14;5.30;;;2.67;;
21305;SDS011;10812;51.838;5.838;2023-03-16T10:32:48;6.80;;;2.40;;
21305;SDS011;10812;51.838;5.838;2023-03-16T10:35:20;4.40;;;2.83;;
21305;SDS011;10812;51.838;5.838;2023-03-16T10:37:57;3.33;;;2.50;;
21305;SDS011;10812;51.838;5.838;2023-03-16T10:40:26;3.40;;;2.40;;
21305;SDS011;10812;51.838;5.838;2023-03-16T10:43:04;5.00;;;2.27;;
21305;SDS011;10812;51.838;5.838;2023-03-16T10:45:34;3.67;;;2.50;;
21305;SDS011;10812;51.838;5.838;2023-03-16T10:48:06;4.87;;;2.07;;
21305;SDS011;10812;51.838;5.838;2023-03-16T10:50:35;2.57;;;2.17;;
21305;SDS011;10812;51.838;5.838;2023-03-16T10:53:03;2.80;;;2.00;;
21305;SDS011;10812;51.838;5.838;2023-03-16T10:55:43;3.97;;;1.93;;
21305;SDS011;10812;51.838;5.838;2023-03-16T10:58:22;2.97;;;1.90;;
21305;SDS011;10812;51.838;5.838;2023-03-16T11:00:55;3.23;;;1.80;;
21305;SDS011;10812;51.838;5.838;2023-03-16T11:03:26;2.30;;;1.63;;
21305;SDS011;10812;51.838;5.838;2023-03-16T11:05:57;3.20;;;1.77;;
21305;SDS011;10812;51.838;5.838;2023-03-16T11:08:30;4.10;;;1.97;;
21305;SDS011;10812;51.838;5.838;2023-03-16T11:11:02;2.57;;;1.60;;
21305;SDS011;10812;51.838;5.838;2023-03-16T11:13:38;4.67;;;1.63;;
21305;SDS011;10812;51.838;5.838;2023-03-16T11:16:18;3.80;;;1.63;;
21305;SDS011;10812;51.838;5.838;2023-03-16T11:18:51;2.53;;;1.50;;
21305;SDS011;10812;51.838;5.838;2023-03-16T11:21:26;2.57;;;1.30;;
21305;SDS011;10812;51.838;5.838;2023-03-16T11:24:05;3.50;;;1.50;;
21305;SDS011;10812;51.838;5.838;2023-03-16T11:26:43;2.40;;;1.60;;
21305;SDS011;10812;51.838;5.838;2023-03-16T11:29:19;2.73;;;2.13;;
21305;SDS011;10812;51.838;5.838;2023-03-16T11:31:53;3.83;;;1.80;;
21305;SDS011;10812;51.838;5.838;2023-03-16T11:34:25;3.70;;;1.67;;
21305;SDS011;10812;51.838;5.838;2023-03-16T11:36:56;3.67;;;1.73;;
21305;SDS011;10812;51.838;5.838;2023-03-16T11:39:30;2.40;;;1.50;;
21305;SDS011;10812;51.838;5.838;2023-03-16T11:42:12;3.00;;;1.63;;
21305;SDS011;10812;51.838;5.838;2023-03-16T11:44:51;3.97;;;1.83;;
21305;SDS011;10812;51.838;5.838;2023-03-16T11:47:30;2.97;;;1.83;;
21305;SDS011;10812;51.838;5.838;2023-03-16T11:50:12;3.10;;;1.70;;
21305;SDS011;10812;51.838;5.838;2023-03-16T11:52:45;4.00;;;2.00;;
21305;SDS011;10812;51.838;5.838;2023-03-16T11:55:24;2.27;;;1.50;;
21305;SDS011;10812;51.838;5.838;2023-03-16T11:58:09;5.47;;;2.23;;
21305;SDS011;10812;51.838;5.838;2023-03-16T12:00:56;2.37;;;1.87;;
21305;SDS011;10812;51.838;5.838;2023-03-16T12:03:43;3.27;;;1.87;;
21305;SDS011;10812;51.838;5.838;2023-03-16T12:06:26;2.93;;;1.43;;
21305;SDS011;10812;51.838;5.838;2023-03-16T12:09:25;2.73;;;1.90;;
21305;SDS011;10812;51.838;5.838;2023-03-16T12:12:21;4.03;;;2.07;;
21305;SDS011;10812;51.838;5.838;2023-03-16T12:15:01;6.17;;;1.70;;
21305;SDS011;10812;51.838;5.838;2023-03-16T12:17:40;5.70;;;1.67;;
21305;SDS011;10812;51.838;5.838;2023-03-16T12:20:12;4.13;;;1.90;;
21305;SDS011;10812;51.838;5.838;2023-03-16T12:22:44;3.57;;;1.63;;
21305;SDS011;10812;51.838;5.838;2023-03-16T12:25:16;2.87;;;1.57;;
21305;SDS011;10812;51.838;5.838;2023-03-16T12:27:47;3.27;;;2.00;;
21305;SDS011;10812;51.838;5.838;2023-03-16T12:30:23;3.73;;;2.03;;
21305;SDS011;10812;51.838;5.838;2023-03-16T12:33:05;2.70;;;1.77;;
21305;SDS011;10812;51.838;5.838;2023-03-16T12:35:42;2.37;;;1.83;;
21305;SDS011;10812;51.838;5.838;2023-03-16T12:38:20;2.90;;;1.83;;
21305;SDS011;10812;51.838;5.838;2023-03-16T12:41:04;1.70;;;1.50;;
21305;SDS011;10812;51.838;5.838;2023-03-16T12:43:49;3.20;;;1.90;;
21305;SDS011;10812;51.838;5.838;2023-03-16T12:46:25;2.73;;;1.60;;
21305;SDS011;10812;51.838;5.838;2023-03-16T12:49:01;3.20;;;1.90;;
21305;SDS011;10812;51.838;5.838;2023-03-16T12:51:32;2.00;;;1.67;;
21305;SDS011;10812;51.838;5.838;2023-03-16T12:54:01;2.90;;;1.83;;
21305;SDS011;10812;51.838;5.838;2023-03-16T12:56:32;5.50;;;2.13;;
21305;SDS011;10812;51.838;5.838;2023-03-16T12:59:02;5.23;;;1.87;;
21305;SDS011;10812;51.838;5.838;2023-03-16T13:09:17;2.43;;;1.50;;
21305;SDS011;10812;51.838;5.838;2023-03-16T13:11:47;3.20;;;1.90;;
21305;SDS011;10812;51.838;5.838;2023-03-16T13:14:29;2.07;;;1.53;;
21305;SDS011;10812;51.838;5.838;2023-03-16T13:17:05;2.93;;;1.70;;
21305;SDS011;10812;51.838;5.838;2023-03-16T13:20:00;2.30;;;1.80;;
21305;SDS011;10812;51.838;5.838;2023-03-16T13:22:40;2.67;;;1.63;;
21305;SDS011;10812;51.838;5.838;2023-03-16T13:25:14;2.63;;;1.60;;
21305;SDS011;10812;51.838;5.838;2023-03-16T13:27:47;2.50;;;1.37;;
21305;SDS011;10812;51.838;5.838;2023-03-16T13:30:19;2.83;;;1.60;;
21305;SDS011;10812;51.838;5.838;2023-03-16T13:32:51;2.40;;;1.37;;
21305;SDS011;10812;51.838;5.838;2023-03-16T13:35:24;3.07;;;1.77;;
21305;SDS011;10812;51.838;5.838;2023-03-16T13:38:01;2.80;;;1.50;;
21305;SDS011;10812;51.838;5.838;2023-03-16T13:40:32;2.07;;;1.80;;
21305;SDS011;10812;51.838;5.838;2023-03-16T13:43:03;2.73;;;1.60;;
21305;SDS011;10812;51.838;5.838;2023-03-16T13:45:33;2.20;;;1.57;;
21305;SDS011;10812;51.838;5.838;2023-03-16T13:48:03;2.50;;;1.83;;
21305;SDS011;10812;51.838;5.838;2023-03-16T13:50:32;2.70;;;1.37;;
21305;SDS011;10812;51.838;5.838;2023-03-16T13:53:02;6.17;;;1.80;;
21305;SDS011;10812;51.838;5.838;2023-03-16T13:55:38;3.80;;;1.70;;
21305;SDS011;10812;51.838;5.838;2023-03-16T13:58:12;4.40;;;1.57;;
21305;SDS011;10812;51.838;5.838;2023-03-16T14:00:46;4.27;;;1.90;;
21305;SDS011;10812;51.838;5.838;2023-03-16T14:03:15;5.63;;;1.83;;
21305;SDS011;10812;51.838;5.838;2023-03-16T14:05:45;2.00;;;1.13;;
21305;SDS011;10812;51.838;5.838;2023-03-16T14:08:14;3.60;;;1.50;;
21305;SDS011;10812;51.838;5.838;2023-03-16T14:10:45;2.90;;;1.33;;
21305;SDS011;10812;51.838;5.838;2023-03-16T14:13:24;3.57;;;1.47;;
21305;SDS011;10812;51.838;5.838;2023-03-16T14:16:06;3.60;;;1.70;;
21305;SDS011;10812;51.838;5.838;2023-03-16T14:18:40;3.47;;;1.73;;
21305;SDS011;10812;51.838;5.838;2023-03-16T14:21:12;1.60;;;1.30;;
21305;SDS011;10812;51.838;5.838;2023-03-16T14:23:42;2.50;;;1.40;;
21305;SDS011;10812;51.838;5.838;2023-03-16T14:26:14;3.43;;;1.90;;
21305;SDS011;10812;51.838;5.838;2023-03-16T14:28:52;5.67;;;1.80;;
21305;SDS011;10812;51.838;5.838;2023-03-16T14:31:30;1.70;;;1.20;;
21305;SDS011;10812;51.838;5.838;2023-03-16T14:34:00;5.00;;;1.53;;
21305;SDS011;10812;51.838;5.838;2023-03-16T14:36:34;3.23;;;1.40;;
21305;SDS011;10812;51.838;5.838;2023-03-16T14:39:09;2.40;;;1.50;;
21305;SDS011;10812;51.838;5.838;2023-03-16T14:41:42;2.33;;;1.33;;
21305;SDS011;10812;51.838;5.838;2023-03-16T14:44:16;4.37;;;1.67;;
21305;SDS011;10812;51.838;5.838;2023-03-16T14:46:47;2.67;;;1.30;;
21305;SDS011;10812;51.838;5.838;2023-03-16T14:49:20;3.57;;;1.13;;
21305;SDS011;10812;51.838;5.838;2023-03-16T14:51:51;2.30;;;1.23;;
21305;SDS011;10812;51.838;5.838;2023-03-16T14:54:21;3.90;;;1.23;;
21305;SDS011;10812;51.838;5.838;2023-03-16T14:56:51;1.60;;;1.00;;
21305;SDS011;10812;51.838;5.838;2023-03-16T14:59:20;1.27;;;1.00;;
21305;SDS011;10812;51.838;5.838;2023-03-16T15:01:49;1.67;;;0.83;;
21305;SDS011;10812;51.838;5.838;2023-03-16T15:04:19;1.07;;;0.90;;
21305;SDS011;10812;51.838;5.838;2023-03-16T15:06:53;2.10;;;1.23;;
21305;SDS011;10812;51.838;5.838;2023-03-16T15:09:27;1.73;;;1.23;;
21305;SDS011;10812;51.838;5.838;2023-03-16T15:12:02;3.23;;;1.20;;
21305;SDS011;10812;51.838;5.838;2023-03-16T15:14:31;2.60;;;1.00;;
21305;SDS011;10812;51.838;5.838;2023-03-16T15:17:16;3.50;;;1.43;;
21305;SDS011;10812;51.838;5.838;2023-03-16T15:19:44;2.77;;;1.20;;
21305;SDS011;10812;51.838;5.838;2023-03-16T15:22:13;2.80;;;1.33;;
21305;SDS011;10812;51.838;5.838;2023-03-16T15:24:42;4.70;;;1.40;;
21305;SDS011;10812;51.838;5.838;2023-03-16T15:27:18;4.60;;;1.30;;
21305;SDS011;10812;51.838;5.838;2023-03-16T15:29:49;1.77;;;0.90;;
21305;SDS011;10812;51.838;5.838;2023-03-16T15:32:19;1.60;;;1.20;;
21305;SDS011;10812;51.838;5.838;2023-03-16T15:34:48;2.30;;;0.93;;
21305;SDS011;10812;51.838;5.838;2023-03-16T15:37:16;2.07;;;1.07;;
21305;SDS011;10812;51.838;5.838;2023-03-16T15:39:46;2.10;;;1.30;;
21305;SDS011;10812;51.838;5.838;2023-03-16T15:42:14;2.57;;;1.23;;
21305;SDS011;10812;51.838;5.838;2023-03-16T15:44:45;3.57;;;1.80;;
21305;SDS011;10812;51.838;5.838;2023-03-16T15:47:13;9.27;;;2.20;;
21305;SDS011;10812;51.838;5.838;2023-03-16T15:49:41;4.27;;;2.10;;
21305;SDS011;10812;51.838;5.838;2023-03-16T15:52:20;4.27;;;1.57;;
21305;SDS011;10812;51.838;5.838;2023-03-16T15:54:53;4.70;;;1.23;;